Time;durP1;ratioP1;P1;durP2;ratioP2;P2;SDS_P1;SDS_P2;PMS_P1;PMS_P2;Temp;Humidity;BMP_temperature;BMP_pressure;BME280_temperature;BME280_humidity;BME280_pressure;Samples;Min_cycle;Max_cycle;Signal;HPM_P1;HPM_P2
2022/05/12 00:01:01;;;;;;;8.93;5.03;;;;;;;9.30;92.06;97063.66;5027548;28;20048;-63
2022/05/12 00:03:27;;;;;;;7.03;4.20;;;;;;;11.27;91.89;97394.56;5045306;28;20064;-62
2022/05/12 00:05:54;;;;;;;7.50;4.32;;;;;;;11.55;92.52;97423.66;5045055;28;20068;-62
2022/05/12 00:08:21;;;;;;;7.18;4.22;;;;;;;11.62;92.08;97428.50;5027463;28;20048;-62
2022/05/12 00:10:48;;;;;;;9.93;4.65;;;;;;;10.88;92.41;97326.41;5045399;28;20518;-62
2022/05/12 00:13:15;;;;;;;7.40;4.60;;;;;;;11.55;93.09;97450.59;5027110;28;20056;-63
2022/05/12 00:15:42;;;;;;;6.68;4.28;;;;;;;11.47;92.90;97437.75;5044871;28;20064;-63
2022/05/12 00:18:09;;;;;;;10.18;4.85;;;;;;;11.50;92.47;97431.47;5044884;28;20136;-62
2022/05/12 00:20:39;;;;;;;7.95;4.85;;;;;;;10.97;93.35;97363.06;5027135;28;20053;-61
2022/05/12 00:23:18;;;;;;;6.07;4.53;;;;;;;10.51;93.32;97313.00;5026767;28;20089;-62
2022/05/12 00:25:47;;;;;;;6.93;4.35;;;;;;;11.27;93.24;97433.38;5044803;28;20070;-63
2022/05/12 00:28:16;;;;;;;6.88;4.80;;;;;;;10.97;92.84;97365.81;5045426;28;20401;-64
2022/05/12 00:30:45;;;;;;;6.72;4.40;;;;;;;10.57;93.24;97311.53;5044600;28;20045;-62
2022/05/12 00:33:12;;;;;;;7.97;4.63;;;;;;;11.39;94.25;97441.53;5044734;28;20052;-62
2022/05/12 00:35:41;;;;;;;8.65;4.47;;;;;;;11.35;93.90;97440.69;5026955;28;20053;-62
2022/05/12 00:38:09;;;;;;;8.82;4.28;;;;;;;11.40;93.56;97437.59;5044729;28;20057;-61
2022/05/12 00:40:41;;;;;;;6.47;4.68;;;;;;;11.32;92.59;97438.59;5044713;28;20048;-61
2022/05/12 00:43:33;;;;;;;9.75;4.53;;;;;;;11.28;93.59;97434.97;5027018;28;20519;-61
2022/05/12 00:46:00;;;;;;;8.48;4.53;;;;;;;10.45;94.44;97336.63;5044159;28;20435;-61
2022/05/12 00:48:26;;;;;;;8.68;4.45;;;;;;;11.13;95.34;97444.97;5044414;28;20052;-61
2022/05/12 00:50:54;;;;;;;7.07;3.95;;;;;;;11.14;95.48;97445.78;5045572;28;20049;-61
2022/05/12 00:53:22;;;;;;;8.38;5.18;;;;;;;11.15;95.92;97436.28;5046213;28;20498;-61
2022/05/12 00:55:51;;;;;;;9.55;5.20;;;;;;;11.22;94.60;97442.81;5046519;28;20086;-62
2022/05/12 00:58:19;;;;;;;8.05;4.93;;;;;;;10.92;93.64;97399.38;5063207;28;20060;-62
2022/05/12 01:00:46;;;;;;;8.52;4.57;;;;;;;10.66;93.10;97364.78;5046362;28;20060;-61
2022/05/12 01:03:20;;;;;;;6.53;4.55;;;;;;;10.97;93.88;97415.72;5064065;28;20059;-61
2022/05/12 01:05:47;;;;;;;7.70;4.97;;;;;;;11.17;94.93;97433.97;5063997;28;20167;-60
2022/05/12 01:08:16;;;;;;;6.88;4.93;;;;;;;11.25;93.95;97435.72;5063688;28;20060;-61
2022/05/12 01:10:50;;;;;;;7.45;4.68;;;;;;;10.99;94.89;97400.31;5063940;28;20052;-61
2022/05/12 01:13:25;;;;;;;8.50;5.05;;;;;;;10.82;95.50;97405.47;5064209;28;20063;-61
2022/05/12 01:15:59;;;;;;;8.63;4.93;;;;;;;10.64;96.61;97400.34;5045710;28;20726;-61
2022/05/12 01:18:29;;;;;;;7.68;4.60;;;;;;;11.03;96.67;97461.38;5063849;28;20060;-61
2022/05/12 01:20:56;;;;;;;7.32;4.75;;;;;;;11.09;95.56;97437.75;5063768;28;20063;-60
2022/05/12 01:23:25;;;;;;;7.80;5.07;;;;;;;10.83;95.03;97398.78;5063593;28;20049;-61
2022/05/12 01:25:57;;;;;;;10.70;4.47;;;;;;;11.12;95.62;97445.31;5063451;28;20389;-60
2022/05/12 01:28:24;;;;;;;8.30;5.00;;;;;;;10.84;96.02;97403.97;5063717;28;20056;-61
2022/05/12 01:30:51;;;;;;;8.18;4.43;;;;;;;10.78;95.64;97443.41;5045961;28;20566;-60
2022/05/12 01:33:18;;;;;;;7.75;5.32;;;;;;;10.72;95.19;97400.53;5063500;28;20506;-61
2022/05/12 01:35:45;;;;;;;9.23;4.65;;;;;;;11.11;94.92;97457.59;5063716;28;20049;-61
2022/05/12 01:38:13;;;;;;;7.80;4.85;;;;;;;10.89;93.96;97422.28;5063455;28;20041;-60
2022/05/12 01:40:43;;;;;;;10.45;4.88;;;;;;;11.19;93.53;97460.13;5063107;28;20059;-63
2022/05/12 01:43:12;;;;;;;6.78;4.40;;;;;;;11.16;93.43;97460.09;5045039;28;20052;-61
2022/05/12 01:45:39;;;;;;;7.65;4.18;;;;;;;10.66;93.20;97420.19;5063664;28;20044;-61
2022/05/12 01:48:08;;;;;;;7.78;4.43;;;;;;;10.89;93.57;97455.53;5064098;28;20450;-62
2022/05/12 01:50:37;;;;;;;7.53;4.68;;;;;;;10.88;94.16;97459.44;5063511;28;20059;-61
2022/05/12 01:53:04;;;;;;;9.23;5.00;;;;;;;10.86;93.44;97465.34;5063090;28;20498;-61
2022/05/12 01:55:31;;;;;;;9.32;4.80;;;;;;;10.10;92.53;97357.16;5045263;28;20056;-61
2022/05/12 01:57:58;;;;;;;10.10;5.57;;;;;;;10.76;93.52;97462.34;5063069;28;20063;-61
2022/05/12 02:00:27;;;;;;;9.80;6.57;;;;;;;10.77;94.18;97475.03;5063728;28;20051;-62
2022/05/12 02:02:54;;;;;;;7.78;4.95;;;;;;;10.79;95.42;97467.16;5063346;28;20063;-62
2022/05/12 02:05:21;;;;;;;12.07;5.60;;;;;;;10.80;94.71;97474.31;5063273;28;20087;-61
2022/05/12 02:07:49;;;;;;;11.75;5.50;;;;;;;10.33;94.07;97411.50;5063168;28;20060;-61
2022/05/12 02:10:22;;;;;;;12.85;6.43;;;;;;;10.63;94.98;97464.44;5065911;28;20083;-61
2022/05/12 02:12:49;;;;;;;10.95;5.93;;;;;;;10.64;95.10;97461.31;5067301;28;20059;-63
2022/05/12 02:15:16;;;;;;;8.23;5.07;;;;;;;10.52;95.63;97458.66;5067182;28;20525;-61
2022/05/12 02:17:43;;;;;;;8.80;5.10;;;;;;;10.64;95.90;97466.84;5067290;28;20056;-61
2022/05/12 02:20:12;;;;;;;7.72;4.90;;;;;;;10.59;96.49;97467.13;5067185;28;20060;-61
2022/05/12 02:22:39;;;;;;;8.93;5.05;;;;;;;10.17;95.62;97385.81;5067933;28;20044;-61
2022/05/12 02:25:07;;;;;;;9.50;5.28;;;;;;;10.41;94.91;97427.13;5067284;28;20052;-61
2022/05/12 02:27:35;;;;;;;7.95;4.97;;;;;;;10.62;96.88;97466.38;5049258;28;20602;-62
2022/05/12 02:30:03;;;;;;;8.07;4.88;;;;;;;10.26;97.34;97388.38;5066750;28;20511;-61
2022/05/12 02:32:30;;;;;;;8.60;4.93;;;;;;;10.62;97.71;97468.38;5067048;28;20445;-61
2022/05/12 02:34:57;;;;;;;9.63;5.25;;;;;;;10.55;97.12;97469.00;5048805;28;20056;-61
2022/05/12 02:37:24;;;;;;;9.32;5.57;;;;;;;10.55;96.99;97469.00;5048677;28;20518;-61
2022/05/12 02:39:50;;;;;;;9.63;4.97;;;;;;;10.34;96.50;97451.88;5066821;28;20064;-61
2022/05/12 02:42:17;;;;;;;14.32;7.32;;;;;;;9.97;95.61;97409.00;5048974;28;20049;-61
2022/05/12 02:44:44;;;;;;;17.52;7.57;;;;;;;9.37;96.08;97312.63;5049164;28;20055;-61
2022/05/12 02:47:11;;;;;;;8.60;6.13;;;;;;;10.17;95.23;97470.81;5048840;28;20536;-61
2022/05/12 02:49:37;;;;;;;9.15;5.28;;;;;;;7.80;94.12;97154.38;5048968;28;20056;-61
2022/05/12 02:52:06;;;;;;;9.25;6.07;;;;;;;9.91;94.20;97460.22;5059892;28;20737;-61
2022/05/12 02:54:34;;;;;;;10.55;5.80;;;;;;;10.09;93.66;97477.31;5046847;28;20511;-61
2022/05/12 02:57:02;;;;;;;12.15;6.18;;;;;;;10.02;93.86;97461.31;5046152;28;20068;-61
2022/05/12 02:59:29;;;;;;;10.63;6.10;;;;;;;10.15;93.51;97476.72;5046579;28;20065;-61
2022/05/12 03:01:57;;;;;;;10.80;5.60;;;;;;;10.06;95.22;97467.75;5046724;28;20408;-61
2022/05/12 03:04:25;;;;;;;11.15;6.13;;;;;;;10.04;96.62;97474.78;5046922;28;20053;-62
2022/05/12 03:06:52;;;;;;;12.48;6.20;;;;;;;10.04;96.94;97481.13;5046545;28;20088;-62
2022/05/12 03:09:18;;;;;;;12.68;6.13;;;;;;;10.01;97.56;97458.91;5046818;28;20056;-62
2022/05/12 03:11:45;;;;;;;11.30;5.68;;;;;;;10.11;98.02;97477.78;5028705;28;20839;-61
2022/05/12 03:14:12;;;;;;;15.30;7.82;;;;;;;10.07;98.75;97458.31;5027939;28;20428;-61
2022/05/12 03:16:39;;;;;;;12.30;6.90;;;;;;;10.22;98.62;97476.91;5046122;28;20126;-61
2022/05/12 03:19:06;;;;;;;12.27;8.75;;;;;;;9.88;97.93;97438.81;5028194;28;20057;-61
2022/05/12 03:21:32;;;;;;;12.45;6.97;;;;;;;10.26;98.14;97494.38;5045264;28;20071;-61
2022/05/12 03:23:59;;;;;;;8.30;5.57;;;;;;;10.30;97.72;97484.22;5046202;28;20488;-62
2022/05/12 03:26:26;;;;;;;14.68;6.25;;;;;;;10.08;96.02;97443.31;5046274;28;20049;-61
2022/05/12 03:28:52;;;;;;;11.23;6.22;;;;;;;10.38;96.07;97480.47;5045978;28;20045;-62
2022/05/12 03:31:19;;;;;;;8.85;5.38;;;;;;;10.48;95.04;97496.53;5045695;28;20064;-62
2022/05/12 03:33:46;;;;;;;7.40;5.43;;;;;;;10.52;94.39;97491.88;5045899;28;20067;-61
2022/05/12 03:36:15;;;;;;;9.65;4.88;;;;;;;10.08;94.17;97443.31;5045708;28;20049;-61
2022/05/12 03:38:43;;;;;;;10.65;5.18;;;;;;;10.60;93.47;97504.75;5045405;28;20053;-60
2022/05/12 03:41:10;;;;;;;10.10;5.60;;;;;;;10.51;92.80;97484.72;5027243;28;20072;-60
2022/05/12 03:46:27;;;;;;;9.02;5.95;;;;;;;10.67;93.30;97509.63;5045662;28;20059;-60
2022/05/12 03:48:54;;;;;;;7.40;5.45;;;;;;;10.73;93.97;97515.72;5046164;28;20800;-62
2022/05/12 03:51:21;;;;;;;11.75;5.53;;;;;;;10.82;94.63;97517.13;5045759;28;20053;-62
2022/05/12 03:53:47;;;;;;;10.93;5.30;;;;;;;10.83;95.82;97520.72;5065901;28;20105;-61
2022/05/12 03:56:14;;;;;;;11.10;5.60;;;;;;;10.99;95.39;97504.84;5065097;28;20053;-61
2022/05/12 03:58:41;;;;;;;9.82;5.90;;;;;;;10.82;94.40;97481.09;5065223;28;20109;-61
2022/05/12 04:01:07;;;;;;;7.78;5.40;;;;;;;10.67;94.25;97438.41;5065171;28;20082;-62
2022/05/12 04:03:34;;;;;;;7.40;4.88;;;;;;;11.25;94.27;97530.81;5065405;28;20055;-62
2022/05/12 04:06:04;;;;;;;9.43;5.47;;;;;;;11.41;93.18;97522.44;5047644;28;20551;-61
2022/05/12 04:08:31;;;;;;;8.70;4.72;;;;;;;11.26;92.66;97487.22;5064999;28;20056;-61
2022/05/12 04:10:57;;;;;;;7.93;5.57;;;;;;;11.70;91.66;97535.75;5065173;28;20566;-62
2022/05/12 04:13:24;;;;;;;11.10;6.53;;;;;;;11.69;91.91;97528.59;5065006;28;20053;-61
2022/05/12 04:15:52;;;;;;;10.30;6.20;;;;;;;11.62;91.10;97489.56;5064848;28;20507;-62
2022/05/12 04:18:18;;;;;;;9.13;5.38;;;;;;;12.08;89.73;97524.59;5065063;28;20055;-62
2022/05/12 04:20:45;;;;;;;10.32;5.80;;;;;;;12.16;90.28;97515.22;5046954;28;20061;-61
2022/05/12 04:23:12;;;;;;;8.80;5.70;;;;;;;12.40;89.37;97526.00;5064838;28;20052;-62
2022/05/12 04:25:39;;;;;;;13.50;6.20;;;;;;;12.13;88.75;97465.97;5046656;28;20052;-61
2022/05/12 04:28:05;;;;;;;9.50;5.50;;;;;;;12.72;88.05;97516.22;5065085;28;20139;-61
2022/05/12 04:30:33;;;;;;;10.60;4.65;;;;;;;12.84;87.31;97518.78;5046695;28;20060;-61
2022/05/12 04:35:09;;;;;;;7.85;4.55;;;;;;;12.88;86.80;97514.06;5045995;28;20463;-62
2022/05/12 04:35:46;;;;;;;11.95;5.57;;;;;;;12.95;86.51;97505.84;5064843;28;20049;-61
2022/05/12 04:38:13;;;;;;;11.85;5.63;;;;;;;13.16;85.70;97519.28;5047064;28;20052;-62
2022/05/12 04:40:40;;;;;;;14.75;5.65;;;;;;;12.80;84.56;97440.09;5064486;28;20089;-62
2022/05/12 04:43:06;;;;;;;9.75;5.57;;;;;;;13.40;84.67;97522.41;5063458;28;20215;-64
2022/05/12 04:45:34;;;;;;;9.65;5.53;;;;;;;13.50;83.94;97524.56;5046082;28;20110;-62
2022/05/12 04:48:02;;;;;;;11.23;5.28;;;;;;;13.65;82.46;97543.06;5064248;28;20053;-63
2022/05/12 04:50:33;;;;;;;9.52;5.43;;;;;;;11.89;81.54;97205.41;5064212;28;20049;-62
2022/05/12 04:53:01;;;;;;;7.25;5.43;;;;;;;14.03;81.10;97524.41;5064073;28;20483;-62
2022/05/12 04:55:29;;;;;;;10.00;6.05;;;;;;;13.87;79.75;97465.31;5046338;28;20059;-62
2022/05/12 04:57:57;;;;;;;10.05;5.25;;;;;;;14.36;79.20;97516.84;5063960;28;20056;-62
2022/05/12 05:00:28;;;;;;;10.40;6.47;;;;;;;14.52;78.56;97522.16;5064085;28;20052;-61
2022/05/12 05:02:55;;;;;;;11.70;6.28;;;;;;;14.65;77.88;97529.84;5064379;28;20065;-61
2022/05/12 05:05:22;;;;;;;11.25;6.13;;;;;;;14.44;76.95;97461.94;5064357;28;20056;-61
2022/05/12 05:07:48;;;;;;;10.00;5.95;;;;;;;14.96;75.59;97522.94;5046233;28;20457;-63
2022/05/12 05:10:16;;;;;;;11.02;6.80;;;;;;;14.82;75.55;97492.13;5064219;28;20462;-62
2022/05/12 05:12:43;;;;;;;9.68;5.55;;;;;;;15.00;75.46;97529.34;5046026;28;20240;-61
2022/05/12 05:15:12;;;;;;;9.18;5.57;;;;;;;15.29;75.19;97531.13;5063593;28;20066;-61
2022/05/12 05:17:40;;;;;;;8.50;5.50;;;;;;;15.14;73.14;97501.53;5064026;28;20048;-61
2022/05/12 05:20:12;;;;;;;6.88;5.15;;;;;;;15.52;72.39;97528.91;5064138;28;20091;-63
2022/05/12 05:22:38;;;;;;;10.45;5.45;;;;;;;15.45;71.98;97498.16;5064279;28;20060;-61
2022/05/12 05:25:06;;;;;;;8.98;5.32;;;;;;;15.73;71.77;97512.25;5063718;28;20064;-60
2022/05/12 05:27:33;;;;;;;9.88;4.85;;;;;;;15.57;71.10;97461.50;5063726;28;20057;-60
2022/05/12 05:30:00;;;;;;;7.05;5.25;;;;;;;15.74;70.93;97490.72;5063688;28;20056;-62
2022/05/12 05:32:27;;;;;;;12.63;5.55;;;;;;;15.87;70.25;97492.75;5063785;28;20067;-60
2022/05/12 05:34:54;;;;;;;8.70;5.80;;;;;;;14.06;68.58;97172.66;5064376;28;20048;-62
2022/05/12 05:37:22;;;;;;;7.63;5.30;;;;;;;16.51;70.45;97525.31;5063765;28;20055;-63
2022/05/12 05:39:49;;;;;;;11.10;5.80;;;;;;;14.89;70.37;97271.84;5063423;28;20048;-63
2022/05/12 05:42:17;;;;;;;9.98;5.63;;;;;;;16.73;69.70;97514.13;5057833;28;20431;-61
2022/05/12 05:44:45;;;;;;;9.07;5.57;;;;;;;16.92;68.60;97522.13;5042199;28;20040;-65
2022/05/12 05:47:12;;;;;;;10.30;5.88;;;;;;;17.17;67.82;97520.09;5061644;28;20048;-60
2022/05/12 05:49:41;;;;;;;230.88;24.98;;;;;;;17.16;66.30;97454.13;5061626;28;20045;-58
2022/05/12 05:54:54;;;;;;;11.25;4.55;;;;;;;17.81;64.12;97519.56;5058681;28;20562;-57
2022/05/12 05:57:24;;;;;;;14.57;4.88;;;;;;;17.75;62.60;97470.75;5040445;28;20057;-62
2022/05/12 05:59:55;;;;;;;10.73;4.53;;;;;;;18.11;60.12;97493.81;5054151;28;20048;-62
2022/05/12 06:02:22;;;;;;;6.72;4.50;;;;;;;18.39;58.92;97510.50;5043439;28;20514;-58
2022/05/12 06:04:49;;;;;;;7.65;4.95;;;;;;;18.49;59.01;97504.03;5060530;28;20126;-61
2022/05/12 06:07:16;;;;;;;5.45;4.20;;;;;;;18.71;58.16;97510.28;5062098;28;20048;-61
2022/05/12 06:09:43;;;;;;;6.70;4.07;;;;;;;18.57;57.82;97455.09;5061112;28;20048;-60
2022/05/12 06:12:10;;;;;;;6.50;4.53;;;;;;;19.02;59.11;97512.03;5058676;28;20443;-65
2022/05/12 06:14:38;;;;;;;10.15;4.82;;;;;;;19.16;59.15;97481.81;5059846;28;20422;-60
2022/05/12 06:17:06;;;;;;;4.80;4.22;;;;;;;18.90;58.68;97439.56;5040952;28;20049;-61
2022/05/12 06:19:33;;;;;;;8.35;4.07;;;;;;;19.46;57.89;97501.63;5061728;28;20078;-59
2022/05/12 06:22:00;;;;;;;8.93;4.28;;;;;;;19.58;57.42;97503.88;5061781;28;20087;-63
2022/05/12 06:24:27;;;;;;;7.63;4.13;;;;;;;19.61;57.94;97507.09;5060602;28;20710;-64
2022/05/12 06:26:54;;;;;;;8.27;3.88;;;;;;;19.82;57.88;97501.22;5060665;28;20459;-63
2022/05/12 06:29:21;;;;;;;8.70;4.07;;;;;;;19.98;58.10;97493.78;5060916;28;20056;-64
2022/05/12 06:31:48;;;;;;;10.50;4.43;;;;;;;19.96;57.84;97503.88;5062160;28;20040;-61
2022/05/12 06:34:15;;;;;;;5.38;3.92;;;;;;;20.12;57.88;97501.25;5059187;28;20057;-62
2022/05/12 06:36:44;;;;;;;6.45;3.35;;;;;;;20.37;56.77;97505.34;5060228;28;20048;-62
2022/05/12 06:39:11;;;;;;;6.72;4.22;;;;;;;20.58;55.83;97488.13;5059249;28;20139;-58
2022/05/12 06:41:38;;;;;;;7.18;3.65;;;;;;;20.77;54.43;97503.56;5038688;28;20045;-59
2022/05/12 06:44:05;;;;;;;7.35;4.45;;;;;;;20.49;55.51;97501.16;5056900;28;20044;-59
2022/05/12 06:46:32;;;;;;;11.52;4.53;;;;;;;20.39;55.38;97468.34;5059430;28;20044;-61
2022/05/12 06:49:02;;;;;;;4.38;3.88;;;;;;;20.13;54.30;97500.03;5060434;28;20048;-65
2022/05/12 06:51:29;;;;;;;4.97;3.55;;;;;;;19.97;54.01;97480.13;5060400;28;20045;-61
2022/05/12 06:53:56;;;;;;;6.10;2.75;;;;;;;20.60;51.98;97496.16;5057631;28;20064;-60
2022/05/12 06:56:22;;;;;;;4.57;3.63;;;;;;;20.83;49.93;97504.66;5043279;28;20086;-64
2022/05/12 06:58:49;;;;;;;5.90;3.15;;;;;;;20.46;50.10;97411.94;5064590;28;20064;-60
2022/05/12 07:01:16;;;;;;;6.80;3.40;;;;;;;19.46;50.66;97186.91;5063979;28;20723;-64
2022/05/12 07:03:43;;;;;;;5.28;3.08;;;;;;;21.53;48.13;97497.81;5055163;28;20103;-60
2022/05/12 07:06:10;;;;;;;4.38;3.42;;;;;;;21.68;49.15;97498.34;5043897;28;20060;-65
2022/05/12 07:08:41;;;;;;;6.25;3.20;;;;;;;21.58;46.90;97432.47;5046491;28;20048;-66
2022/05/12 07:11:09;;;;;;;6.00;3.58;;;;;;;21.01;48.59;97437.59;5054919;28;20479;-65
2022/05/12 07:13:36;;;;;;;6.18;3.35;;;;;;;21.77;47.31;97490.94;5065406;28;20404;-63
2022/05/12 07:16:04;;;;;;;6.18;3.28;;;;;;;21.81;47.10;97486.03;5046515;28;20055;-66
2022/05/12 07:18:33;;;;;;;6.00;3.55;;;;;;;22.04;46.09;97479.50;5057612;28;20467;-64
2022/05/12 07:26:51;;;;;;;5.15;3.20;;;;;;;22.42;45.34;97441.97;5060654;28;20113;-62
2022/05/12 07:29:22;;;;;;;4.80;3.55;;;;;;;22.20;45.77;97474.72;5063950;28;20056;-62
2022/05/12 07:31:49;;;;;;;5.00;3.53;;;;;;;22.19;44.48;97425.13;5060302;28;20064;-61
2022/05/12 07:34:17;;;;;;;3.42;3.13;;;;;;;22.82;43.85;97482.19;5064559;28;20048;-61
2022/05/12 07:36:53;;;;;;;11.65;3.75;;;;;;;22.83;43.07;97460.38;5045790;28;20040;-62
2022/05/12 07:39:26;;;;;;;6.57;3.30;;;;;;;22.87;43.54;97461.91;5064215;28;20064;-63
2022/05/12 07:41:54;;;;;;;4.65;3.28;;;;;;;23.02;43.34;97451.00;5064324;28;20051;-60
2022/05/12 07:44:20;;;;;;;3.40;2.80;;;;;;;23.19;41.76;97469.56;5063780;28;20470;-63
2022/05/12 07:46:48;;;;;;;4.60;3.40;;;;;;;21.68;40.49;97188.16;5064041;28;20529;-66
2022/05/12 07:49:15;;;;;;;3.50;3.20;;;;;;;23.28;40.80;97435.84;5046613;28;20123;-63
2022/05/12 07:51:47;;;;;;;5.10;4.10;;;;;;;22.82;40.78;97436.19;5042627;28;20049;-62
2022/05/12 07:54:14;;;;;;;7.18;3.17;;;;;;;22.71;40.04;97418.72;5059576;28;20049;-64
2022/05/12 07:56:40;;;;;;;5.18;2.88;;;;;;;22.95;40.37;97439.91;5042722;28;20079;-65
2022/05/12 07:59:07;;;;;;;3.63;2.83;;;;;;;23.32;37.06;97464.78;5043254;28;20064;-68
2022/05/12 08:01:34;;;;;;;4.75;4.07;;;;;;;23.46;38.08;97458.75;5063414;28;20412;-65
2022/05/12 08:04:01;;;;;;;6.10;3.03;;;;;;;23.67;38.60;97458.19;5063751;28;20064;-63
2022/05/12 08:06:27;;;;;;;4.72;2.88;;;;;;;23.94;37.40;97444.47;5045189;28;20044;-62
2022/05/12 08:08:55;;;;;;;4.72;2.72;;;;;;;24.25;35.89;97465.41;5061069;28;20050;-66
2022/05/12 08:11:21;;;;;;;4.43;3.15;;;;;;;24.22;35.98;97466.28;5064134;28;20526;-67
2022/05/12 08:13:48;;;;;;;4.63;3.85;;;;;;;24.50;34.98;97456.91;5063664;28;20597;-67
2022/05/12 08:16:18;;;;;;;9.30;6.20;;;;;;;24.26;35.56;97455.69;5062935;28;20139;-66
2022/05/12 08:18:49;;;;;;;5.82;2.92;;;;;;;24.03;34.14;97430.47;5062596;28;20049;-69
2022/05/12 08:21:18;;;;;;;3.08;2.78;;;;;;;24.39;32.70;97456.47;5063037;28;20076;-65
2022/05/12 08:23:45;;;;;;;3.58;2.38;;;;;;;23.90;32.60;97436.06;5044806;28;20063;-66
2022/05/12 08:26:12;;;;;;;3.67;3.05;;;;;;;24.41;34.73;97461.66;5062596;28;20059;-66
2022/05/12 08:28:40;;;;;;;4.50;3.50;;;;;;;24.64;34.60;97448.00;5063677;28;20059;-67
2022/05/12 08:31:07;;;;;;;3.05;2.78;;;;;;;23.83;34.48;97313.81;5062984;28;20060;-65
2022/05/12 08:33:37;;;;;;;3.83;2.90;;;;;;;24.66;35.06;97422.84;5058098;28;20052;-64
2022/05/12 08:36:04;;;;;;;5.53;3.80;;;;;;;24.98;34.15;97445.28;5064474;28;20049;-65
2022/05/12 08:38:34;;;;;;;4.38;3.08;;;;;;;25.04;34.63;97437.78;5063027;28;20044;-71
2022/05/12 08:41:04;;;;;;;3.70;2.97;;;;;;;25.23;34.32;97450.09;5045003;28;20420;-66
2022/05/12 08:43:45;;;;;;;4.63;3.50;;;;;;;24.89;31.72;97365.81;5061104;28;20076;-65
2022/05/12 08:46:24;;;;;;;3.42;2.75;;;;;;;25.53;31.34;97440.19;5062395;28;20044;-66
2022/05/12 08:49:17;;;;;;;2.90;2.70;;;;;;;24.85;31.44;97304.84;5041623;28;20055;-65
2022/05/12 08:51:49;;;;;;;4.10;2.72;;;;;;;25.84;30.40;97443.91;5035979;28;20060;-67
2022/05/12 08:54:19;;;;;;;3.38;2.80;;;;;;;25.62;29.55;97449.56;5060181;28;20053;-64
2022/05/12 08:56:47;;;;;;;4.55;3.15;;;;;;;25.67;29.57;97445.34;5063342;28;20048;-65
2022/05/12 08:59:14;;;;;;;3.95;2.78;;;;;;;25.75;31.22;97438.16;5062584;28;20530;-66
2022/05/12 09:01:54;;;;;;;5.30;3.22;;;;;;;25.60;31.21;97383.16;5045202;28;20065;-67
2022/05/12 09:04:46;;;;;;;5.30;3.63;;;;;;;25.94;30.61;97426.47;5058081;28;20593;-68
2022/05/12 09:07:28;;;;;;;3.40;3.10;;;;;;;26.06;30.86;97441.88;5062276;28;20135;-67
2022/05/12 09:10:06;;;;;;;5.68;3.70;;;;;;;26.19;30.38;97431.25;5044401;28;20048;-68
2022/05/12 09:12:42;;;;;;;8.23;4.88;;;;;;;25.92;30.89;97391.28;5045700;28;20056;-66
2022/05/12 09:15:34;;;;;;;5.85;3.60;;;;;;;26.14;30.01;97394.91;5046216;28;20048;-65
2022/05/12 09:18:06;;;;;;;4.20;3.45;;;;;;;25.83;29.83;97428.13;5063628;28;20059;-68
2022/05/12 09:20:36;;;;;;;3.50;3.20;;;;;;;25.88;30.16;97407.63;5063260;28;20055;-68
2022/05/12 09:23:04;;;;;;;3.08;2.78;;;;;;;25.44;29.06;97381.31;5063510;28;20060;-68
2022/05/12 09:25:43;;;;;;;3.00;2.70;;;;;;;25.37;29.46;97423.31;5063872;28;20056;-68
2022/05/12 09:28:34;;;;;;;4.70;2.88;;;;;;;25.57;30.19;97429.47;5045513;28;20059;-68
2022/05/12 09:31:18;;;;;;;3.15;2.67;;;;;;;25.56;30.62;97427.91;5045442;28;20217;-66
2022/05/12 09:33:51;;;;;;;5.70;3.00;;;;;;;26.07;29.51;97429.25;5045669;28;20143;-65
2022/05/12 09:36:21;;;;;;;3.05;2.80;;;;;;;26.12;28.29;97423.78;5064055;28;20048;-65
2022/05/12 09:38:54;;;;;;;3.72;3.42;;;;;;;26.28;28.97;97417.88;5063408;28;20056;-66
2022/05/12 09:41:51;;;;;;;4.70;2.53;;;;;;;26.48;27.09;97420.31;5062156;28;20053;-65
2022/05/12 09:44:49;;;;;;;4.45;2.83;;;;;;;26.10;27.66;97428.31;5063211;28;20060;-66
2022/05/12 09:47:37;;;;;;;3.67;2.83;;;;;;;25.67;28.94;97422.63;5063389;28;20056;-68
2022/05/12 09:50:28;;;;;;;3.28;2.80;;;;;;;26.03;29.18;97422.94;5001322;28;20568;-66
2022/05/12 09:53:03;;;;;;;3.40;3.20;;;;;;;26.01;28.99;97352.41;4985476;28;20064;-66
2022/05/12 09:55:31;;;;;;;2.88;2.67;;;;;;;26.60;29.10;97410.94;4984370;28;20564;-65
2022/05/12 09:58:03;;;;;;;4.30;2.90;;;;;;;26.84;28.87;97397.78;4984218;28;20136;-66
2022/05/12 10:00:32;;;;;;;3.03;2.70;;;;;;;25.94;29.15;97411.50;4984403;28;20061;-65
2022/05/12 10:09:21;;;;;;;3.40;2.42;;;;;;;25.65;28.80;97408.09;4981111;28;20062;-66
2022/05/12 10:11:57;;;;;;;4.78;3.42;;;;;;;26.37;29.18;97385.88;4980869;28;20057;-66
2022/05/12 10:14:47;;;;;;;5.00;3.70;;;;;;;26.70;28.33;97375.59;4965377;28;20109;-69
2022/05/12 10:17:38;;;;;;;27.80;24.33;;;;;;;26.93;27.94;97400.66;4991525;28;20053;-66
2022/05/12 10:20:08;;;;;;;3.85;3.17;;;;;;;27.21;27.33;97390.88;4983827;28;20398;-68
2022/05/12 10:23:04;;;;;;;4.07;2.60;;;;;;;27.46;26.97;97393.47;5007866;28;20061;-68
2022/05/12 10:25:57;;;;;;;2.95;2.63;;;;;;;27.62;26.44;97395.19;4992413;28;20049;-67
2022/05/12 10:28:36;;;;;;;3.25;2.90;;;;;;;27.79;26.31;97379.41;5037468;28;20573;-65
2022/05/12 10:31:22;;;;;;;3.53;2.92;;;;;;;28.01;26.60;97377.94;5046020;28;20133;-67
2022/05/12 10:34:02;;;;;;;3.35;2.90;;;;;;;28.31;26.71;97381.03;5044874;28;20103;-72
2022/05/12 10:36:50;;;;;;;2.92;2.72;;;;;;;28.08;26.84;97371.94;5061631;28;20045;-67
2022/05/12 10:39:42;;;;;;;3.78;2.35;;;;;;;27.95;26.48;97379.06;5064613;28;20068;-72
2022/05/12 10:42:18;;;;;;;3.95;2.80;;;;;;;27.66;26.50;97362.47;5065853;28;20462;-65
2022/05/12 10:45:08;;;;;;;4.65;3.08;;;;;;;27.69;26.67;97381.47;5065886;28;20514;-67
2022/05/12 10:47:48;;;;;;;3.00;2.70;;;;;;;27.78;26.99;97363.56;5058339;28;20132;-72
2022/05/12 10:50:21;;;;;;;4.03;3.03;;;;;;;27.97;27.03;97360.25;5047040;28;20060;-78
2022/05/12 10:53:26;;;;;;;4.13;3.40;;;;;;;28.12;26.33;97368.91;5052478;28;20056;-67
2022/05/12 10:56:17;;;;;;;5.32;2.90;;;;;;;28.26;26.29;97364.59;5029674;28;20147;-69
2022/05/12 10:58:51;;;;;;;3.13;2.92;;;;;;;28.32;26.18;97362.66;5064145;28;20079;-65
2022/05/12 11:01:35;;;;;;;4.15;3.33;;;;;;;28.44;26.31;97353.13;5063954;28;20062;-67
2022/05/12 11:04:11;;;;;;;3.45;3.15;;;;;;;28.85;28.07;97355.19;5046541;28;20040;-71
2022/05/12 11:06:49;;;;;;;5.13;3.90;;;;;;;28.96;28.88;97338.31;5058000;28;20052;-68
2022/05/12 11:09:23;;;;;;;3.50;3.20;;;;;;;28.21;28.61;97345.28;5055734;28;20131;-71
2022/05/12 11:11:51;;;;;;;;;;;;;;;28.57;29.69;97345.16;5065187;28;20045;-72
2022/05/12 11:14:30;;;;;;;6.25;3.42;;;;;;;28.84;27.90;97347.88;5064879;28;19924;-78
2022/05/12 11:17:43;;;;;;;4.53;3.78;;;;;;;28.38;27.83;97238.97;5042708;28;20067;-71
2022/05/12 11:20:36;;;;;;;3.40;3.10;;;;;;;28.53;27.35;97242.72;5039445;28;20053;-70
2022/05/12 11:23:43;;;;;;;3.28;3.03;;;;;;;29.24;28.21;97325.44;5064586;28;20469;-67
2022/05/12 11:26:32;;;;;;;5.95;3.20;;;;;;;29.42;26.76;97342.41;5064373;28;20057;-67
2022/05/12 11:32:15;;;;;;;3.97;3.13;;;;;;;29.14;27.12;97326.78;5060667;28;20037;-69
2022/05/12 11:34:49;;;;;;;4.35;3.65;;;;;;;29.24;27.16;97325.44;5061066;28;20133;-66
2022/05/12 11:37:25;;;;;;;3.92;3.25;;;;;;;29.44;27.15;97317.03;5046876;28;20093;-67
2022/05/12 11:39:55;;;;;;;3.40;3.20;;;;;;;29.42;26.95;97313.84;5063907;28;20114;-66
2022/05/12 11:45:47;;;;;;;3.53;3.33;;;;;;;29.64;26.79;97308.59;5053604;28;20127;-64
2022/05/12 11:48:25;;;;;;;4.10;3.70;;;;;;;29.82;27.11;97308.44;5063534;28;20172;-68
2022/05/12 11:51:10;;;;;;;4.22;3.42;;;;;;;29.55;26.60;97251.56;5064334;28;20055;-71
2022/05/12 11:54:01;;;;;;;3.75;3.42;;;;;;;28.55;27.33;97245.09;5043238;28;20488;-67
2022/05/12 11:56:49;;;;;;;3.63;3.25;;;;;;;28.15;28.33;97303.19;5061786;28;20255;-68
2022/05/12 11:59:18;;;;;;;3.80;3.50;;;;;;;27.68;28.07;97214.72;5063657;28;20063;-67
2022/05/12 12:01:49;;;;;;;3.33;3.00;;;;;;;28.31;28.64;97264.19;5064725;28;20044;-72
2022/05/12 12:04:39;;;;;;;5.85;3.00;;;;;;;28.84;28.60;97290.81;5064472;28;20060;-64
2022/05/12 12:07:20;;;;;;;3.58;3.38;;;;;;;28.90;27.59;97288.88;5063643;28;20564;-74
2022/05/12 12:09:56;;;;;;;3.30;3.10;;;;;;;28.92;28.13;97286.34;5064809;28;20047;-71
2022/05/12 12:12:41;;;;;;;3.85;3.40;;;;;;;28.98;27.96;97278.69;5063358;28;20088;-65
2022/05/12 12:15:09;;;;;;;4.70;3.35;;;;;;;28.84;28.19;97279.41;5063869;28;20064;-60